createdAt,value
2023-10-16T00:00:42.652Z,99010.59
2023-10-16T00:03:10.276Z,99007.56
2023-10-16T00:05:50.749Z,99012.66
2023-10-16T00:08:18.015Z,99013.47
2023-10-16T00:10:58.099Z,99010.44
2023-10-16T00:13:29.606Z,99008.34
2023-10-16T00:15:58.772Z,98997.50
2023-10-16T00:18:30.766Z,98994.41
2023-10-16T00:20:57.471Z,98995.66
2023-10-16T00:23:27.210Z,98997.09
2023-10-16T00:28:26.020Z,98995.31
2023-10-16T00:30:52.996Z,98994.34
2023-10-16T00:41:18.712Z,98983.06
2023-10-16T01:02:17.559Z,98964.81
2023-10-16T01:04:44.656Z,98960.91
2023-10-16T01:07:16.809Z,98962.03
2023-10-16T01:09:44.116Z,98961.47
2023-10-16T01:12:13.672Z,98957.00
2023-10-16T01:14:41.416Z,98955.94
2023-10-16T01:17:12.435Z,98953.88
2023-10-16T01:19:42.703Z,98957.06
2023-10-16T01:22:13.089Z,98949.88
2023-10-16T01:24:45.572Z,98956.53
2023-10-16T01:30:03.098Z,98946.22
2023-10-16T01:32:29.958Z,98942.25
2023-10-16T01:34:57.492Z,98943.13
2023-10-16T01:37:25.135Z,98946.03
2023-10-16T01:39:56.923Z,98940.34
2023-10-16T01:42:25.550Z,98943.03
2023-10-16T01:44:53.145Z,98947.53
2023-10-16T01:47:20.116Z,98945.13
2023-10-16T01:49:50.896Z,98952.78
2023-10-16T01:52:18.107Z,98950.13
2023-10-16T01:54:47.627Z,98947.66
2023-10-16T01:57:14.992Z,98946.78
2023-10-16T01:59:44.147Z,98936.44
2023-10-16T02:02:12.813Z,98929.06
2023-10-16T02:04:40.106Z,98930.88
2023-10-16T02:07:08.335Z,98927.50
2023-10-16T02:09:38.465Z,98927.19
2023-10-16T02:27:32.677Z,98922.28
2023-10-16T02:35:14.604Z,98918.38
2023-10-16T02:37:42.351Z,98913.47
2023-10-16T02:40:12.581Z,98918.19
2023-10-16T02:42:42.255Z,98914.53
2023-10-16T02:45:25.479Z,98911.75
2023-10-16T02:47:53.645Z,98902.94
2023-10-16T02:50:21.293Z,98901.88
2023-10-16T02:52:51.539Z,98906.44
2023-10-16T02:55:18.377Z,98912.00
2023-10-16T02:57:45.171Z,98893.22
2023-10-16T03:00:19.214Z,98898.84
2023-10-16T03:02:49.088Z,98904.94
2023-10-16T03:08:15.073Z,98902.91
2023-10-16T03:10:41.746Z,98904.88
2023-10-16T03:13:08.531Z,98910.50
2023-10-16T03:15:47.850Z,98914.88
2023-10-16T03:18:19.210Z,98914.09
2023-10-16T03:20:47.584Z,98908.47
2023-10-16T03:23:15.495Z,98907.25
2023-10-16T03:25:43.375Z,98910.56
2023-10-16T03:28:10.888Z,98905.66
2023-10-16T03:30:38.453Z,98902.00
2023-10-16T03:33:05.473Z,98899.78
2023-10-16T03:38:12.905Z,98908.34
2023-10-16T03:43:15.334Z,98892.41
2023-10-16T03:48:21.465Z,98893.72
2023-10-16T03:50:48.384Z,98890.94
2023-10-16T03:53:15.099Z,98896.78
2023-10-16T03:55:45.873Z,98893.75
2023-10-16T03:58:13.621Z,98885.25
2023-10-16T04:00:58.344Z,98885.69
2023-10-16T04:03:28.441Z,98883.41
2023-10-16T04:05:55.438Z,98879.16
2023-10-16T04:08:27.022Z,98882.25
2023-10-16T04:10:57.828Z,98876.47
2023-10-16T04:16:06.958Z,98884.75
2023-10-16T04:18:34.566Z,98891.25
2023-10-16T04:21:15.652Z,98888.41
2023-10-16T04:23:49.404Z,98881.41
2023-10-16T04:26:29.965Z,98885.53
2023-10-16T04:34:24.875Z,98874.13
2023-10-16T04:37:21.440Z,98869.66
2023-10-16T04:39:56.529Z,98867.88
2023-10-16T04:42:45.979Z,98866.03
2023-10-16T04:45:17.142Z,98863.97
2023-10-16T04:47:49.317Z,98857.56
2023-10-16T04:50:16.537Z,98855.44
2023-10-16T04:53:01.189Z,98858.59
2023-10-16T04:55:40.977Z,98853.63
2023-10-16T04:58:21.122Z,98846.00
2023-10-16T05:01:10.364Z,98845.19
2023-10-16T05:03:43.933Z,98838.09
2023-10-16T05:06:16.398Z,98845.13
2023-10-16T05:08:43.992Z,98839.56
2023-10-16T05:11:16.351Z,98833.91
2023-10-16T05:14:17.986Z,98837.16
2023-10-16T05:17:19.106Z,98843.81
2023-10-16T05:22:38.759Z,98837.69
2023-10-16T05:25:25.069Z,98840.59
2023-10-16T05:28:10.217Z,98841.59
2023-10-16T05:30:55.864Z,98837.66
2023-10-16T05:33:40.946Z,98841.69
2023-10-16T05:36:26.481Z,98838.72
2023-10-16T05:39:11.929Z,98849.81
2023-10-16T05:41:57.225Z,98847.06
2023-10-16T05:44:42.344Z,98845.84
2023-10-16T05:47:27.405Z,98842.13
2023-10-16T05:50:12.659Z,98846.09
2023-10-16T05:52:59.303Z,98849.28
2023-10-16T05:55:46.154Z,98848.63
2023-10-16T05:58:31.614Z,98848.56
2023-10-16T06:04:16.784Z,98849.66
2023-10-16T06:07:02.095Z,98849.28
2023-10-16T06:09:47.567Z,98850.72
2023-10-16T06:12:33.090Z,98853.56
2023-10-16T06:14:59.895Z,98855.47
2023-10-16T06:17:26.623Z,98852.59
2023-10-16T06:19:53.425Z,98861.44
2023-10-16T06:22:20.149Z,98857.16
2023-10-16T06:24:49.013Z,98864.00
2023-10-16T06:27:25.908Z,98860.81
2023-10-16T06:29:53.204Z,98856.94
2023-10-16T06:34:59.967Z,98863.53
2023-10-16T06:40:06.487Z,98863.09
2023-10-16T06:42:33.318Z,98868.16
2023-10-16T06:45:08.611Z,98864.38
2023-10-16T06:47:38.695Z,98870.88
2023-10-16T06:50:27.171Z,98865.41
2023-10-16T06:52:55.599Z,98861.97
2023-10-16T06:55:22.798Z,98862.41
2023-10-16T06:57:49.728Z,98868.41
2023-10-16T07:00:33.764Z,98872.06
2023-10-16T07:03:03.719Z,98868.38
2023-10-16T07:08:22.143Z,98877.78
2023-10-16T07:11:05.041Z,98869.72
2023-10-16T07:13:40.088Z,98875.81
2023-10-16T07:16:08.724Z,98867.28
2023-10-16T07:18:37.028Z,98869.00
2023-10-16T07:21:07.690Z,98876.25
2023-10-16T07:23:38.567Z,98865.72
2023-10-16T07:26:10.849Z,98862.56
2023-10-16T07:31:14.314Z,98866.69
2023-10-16T07:33:43.068Z,98860.66
2023-10-16T07:36:13.057Z,98861.13
2023-10-16T07:38:40.495Z,98845.22
2023-10-16T07:41:10.949Z,98860.16
2023-10-16T07:43:37.751Z,98858.72
2023-10-16T07:46:12.679Z,98856.81
2023-10-16T07:48:41.957Z,98858.38
2023-10-16T07:53:40.798Z,98842.53
2023-10-16T07:56:27.396Z,98847.00
2023-10-16T07:59:11.184Z,98847.88
2023-10-16T08:01:47.678Z,98841.75
2023-10-16T08:04:23.824Z,98846.09
2023-10-16T08:07:07.761Z,98843.25
2023-10-16T08:09:35.589Z,98847.31
2023-10-16T08:12:20.116Z,98847.94
2023-10-16T08:14:52.595Z,98853.63
2023-10-16T08:17:25.442Z,98852.66
2023-10-16T08:19:52.713Z,98849.84
2023-10-16T08:22:24.127Z,98850.81
2023-10-16T08:25:00.208Z,98853.03
2023-10-16T08:27:40.234Z,98849.00
2023-10-16T08:30:34.626Z,98850.44
2023-10-16T08:33:09.206Z,98855.38
2023-10-16T08:35:40.003Z,98857.59
2023-10-16T08:38:13.740Z,98851.91
2023-10-16T08:40:45.292Z,98857.13
2023-10-16T08:43:18.458Z,98854.75
2023-10-16T08:45:50.080Z,98852.84
2023-10-16T08:48:23.362Z,98847.00
2023-10-16T08:50:58.840Z,98856.25
2023-10-16T08:53:32.930Z,98867.50
2023-10-16T08:56:09.082Z,98863.28
2023-10-16T08:58:41.066Z,98874.72
2023-10-16T09:01:09.383Z,98869.41
2023-10-16T09:03:39.750Z,98873.50
2023-10-16T09:06:06.686Z,98872.19
2023-10-16T09:08:34.661Z,98864.59
2023-10-16T09:13:41.312Z,98848.25
2023-10-16T09:16:16.249Z,98846.84
2023-10-16T09:18:43.606Z,98847.56
2023-10-16T09:21:24.604Z,98841.69
2023-10-16T09:23:59.917Z,98838.75
2023-10-16T09:26:30.509Z,98837.06
2023-10-16T09:29:05.583Z,98833.38
2023-10-16T09:31:33.399Z,98846.31
2023-10-16T09:36:37.806Z,98831.81
2023-10-16T09:39:18.270Z,98824.56
2023-10-16T09:41:52.713Z,98833.94
2023-10-16T09:44:38.289Z,98828.47
2023-10-16T09:47:25.432Z,98826.22
2023-10-16T09:49:54.267Z,98820.81
2023-10-16T09:52:22.085Z,98815.28
2023-10-16T09:54:50.080Z,98811.69
2023-10-16T09:57:24.987Z,98814.41
2023-10-16T10:00:18.189Z,98808.88
2023-10-16T10:02:47.322Z,98808.88
2023-10-16T10:05:15.246Z,98806.94
2023-10-16T10:07:50.705Z,98802.47
2023-10-16T10:10:48.671Z,98804.78
2023-10-16T10:13:18.328Z,98800.47
2023-10-16T10:15:51.251Z,98806.16
2023-10-16T10:18:34.344Z,98800.56
2023-10-16T10:21:03.698Z,98796.81
2023-10-16T10:23:33.852Z,98791.03
2023-10-16T10:26:08.659Z,98785.69
2023-10-16T10:28:39.636Z,98793.00
2023-10-16T10:31:07.137Z,98787.72
2023-10-16T10:33:43.936Z,98782.56
2023-10-16T10:36:36.540Z,98784.88
2023-10-16T10:39:29.312Z,98769.13
2023-10-16T10:42:05.129Z,98770.91
2023-10-16T10:44:37.109Z,98769.28
2023-10-16T10:47:22.110Z,98772.66
2023-10-16T10:49:52.151Z,98767.59
2023-10-16T10:52:21.430Z,98761.47
2023-10-16T10:54:59.722Z,98758.47
2023-10-16T10:57:28.113Z,98761.22
2023-10-16T11:00:04.420Z,98754.72
2023-10-16T11:02:31.232Z,98756.59
2023-10-16T11:05:00.926Z,98749.72
2023-10-16T11:07:40.781Z,98747.38
2023-10-16T11:10:08.675Z,98744.25
2023-10-16T11:12:35.628Z,98739.53
2023-10-16T11:15:07.421Z,98729.41
2023-10-16T11:17:36.055Z,98734.19
2023-10-16T11:20:28.920Z,98726.28
2023-10-16T11:22:58.323Z,98725.94
2023-10-16T11:25:30.503Z,98715.66
2023-10-16T11:28:08.726Z,98708.97
2023-10-16T11:33:17.483Z,98694.03
2023-10-16T11:38:31.030Z,98683.84
2023-10-16T11:41:06.268Z,98688.94
2023-10-16T11:43:39.158Z,98689.31
2023-10-16T11:46:21.609Z,98681.41
2023-10-16T11:48:51.532Z,98679.91
2023-10-16T11:51:18.515Z,98668.88
2023-10-16T11:53:45.549Z,98667.69
2023-10-16T11:56:14.565Z,98657.00
2023-10-16T11:58:41.750Z,98663.78
2023-10-16T12:03:41.015Z,98656.56
2023-10-16T12:06:10.010Z,98655.50
2023-10-16T12:11:09.586Z,98644.09
2023-10-16T12:13:36.385Z,98645.66
2023-10-16T12:16:03.189Z,98638.88
2023-10-16T12:18:32.694Z,98640.56
2023-10-16T12:21:09.505Z,98633.50
2023-10-16T12:23:38.213Z,98631.53
2023-10-16T12:26:06.286Z,98624.25
2023-10-16T12:28:35.424Z,98621.13
2023-10-16T12:31:04.252Z,98612.53
2023-10-16T12:33:32.465Z,98612.94
2023-10-16T12:36:02.397Z,98605.53
2023-10-16T12:38:29.186Z,98599.63
2023-10-16T12:41:00.753Z,98609.03
2023-10-16T12:43:29.004Z,98605.97
2023-10-16T12:48:31.531Z,98597.31
2023-10-16T12:51:11.209Z,98590.25
2023-10-16T12:53:40.344Z,98595.34
2023-10-16T12:56:07.733Z,98586.72
2023-10-16T12:58:35.404Z,98598.06
2023-10-16T13:03:46.810Z,98570.47
2023-10-16T13:06:13.775Z,98573.72
2023-10-16T13:08:41.174Z,98575.28
2023-10-16T13:11:08.797Z,98570.94
2023-10-16T13:13:36.095Z,98567.41
2023-10-16T13:18:44.968Z,98562.69
2023-10-16T13:21:15.350Z,98565.84
2023-10-16T13:23:46.735Z,98571.28
2023-10-16T13:26:16.155Z,98560.66
2023-10-16T13:28:44.687Z,98558.59
2023-10-16T13:31:11.789Z,98557.72
2023-10-16T13:33:42.962Z,98550.66
2023-10-16T13:36:13.392Z,98551.06
2023-10-16T13:38:40.845Z,98554.25
2023-10-16T13:41:19.886Z,98550.69
2023-10-16T13:43:49.489Z,98544.34
2023-10-16T13:46:16.491Z,98554.50
2023-10-16T13:51:27.235Z,98549.09
2023-10-16T13:53:53.958Z,98542.00
2023-10-16T13:56:21.171Z,98543.91
2023-10-16T13:58:47.971Z,98535.63
2023-10-16T14:01:15.946Z,98535.25
2023-10-16T14:03:43.990Z,98529.75
2023-10-16T14:06:14.205Z,98528.16
2023-10-16T14:08:43.034Z,98531.28
2023-10-16T14:11:15.998Z,98532.09
2023-10-16T14:13:42.786Z,98529.34
2023-10-16T14:16:09.608Z,98520.34
2023-10-16T14:18:36.954Z,98528.94
2023-10-16T14:21:10.045Z,98523.50
2023-10-16T14:26:23.194Z,98514.44
2023-10-16T14:28:53.928Z,98523.03
2023-10-16T14:31:23.121Z,98520.66
2023-10-16T14:36:31.231Z,98530.06
2023-10-16T14:38:58.424Z,98524.19
2023-10-16T14:41:25.241Z,98519.91
2023-10-16T14:43:55.806Z,98522.13
2023-10-16T14:46:24.259Z,98512.72
2023-10-16T14:48:52.010Z,98519.69
2023-10-16T14:51:19.716Z,98509.56
2023-10-16T14:53:49.990Z,98508.69
2023-10-16T14:56:20.656Z,98518.09
2023-10-16T15:01:35.012Z,98522.22
2023-10-16T15:04:02.960Z,98522.22
2023-10-16T15:06:31.205Z,98520.91
2023-10-16T15:09:00.867Z,98511.78
2023-10-16T15:11:30.175Z,98512.13
2023-10-16T15:13:57.270Z,98515.72
2023-10-16T15:16:24.255Z,98514.50
2023-10-16T15:18:51.060Z,98515.72
2023-10-16T15:21:17.890Z,98518.03
2023-10-16T15:23:46.858Z,98521.84
2023-10-16T15:26:13.565Z,98524.19
2023-10-16T15:31:14.023Z,98523.72
2023-10-16T15:33:42.089Z,98517.69
2023-10-16T15:36:09.285Z,98527.47
2023-10-16T15:38:35.993Z,98511.34
2023-10-16T15:41:02.798Z,98526.59
2023-10-16T15:43:29.504Z,98514.06
2023-10-16T15:48:27.529Z,98513.81
2023-10-16T15:50:54.586Z,98514.25
2023-10-16T15:53:22.469Z,98513.72
2023-10-16T15:55:50.077Z,98508.59
2023-10-16T15:58:16.913Z,98513.16
2023-10-16T16:00:43.775Z,98518.13
2023-10-16T16:03:10.731Z,98514.56
2023-10-16T16:05:38.865Z,98520.72
2023-10-16T16:08:07.682Z,98522.63
2023-10-16T16:10:34.742Z,98526.41
2023-10-16T16:13:02.659Z,98534.94
2023-10-16T16:15:29.817Z,98525.78
2023-10-16T16:18:01.888Z,98522.31
2023-10-16T16:20:29.654Z,98530.00
2023-10-16T16:22:58.025Z,98523.78
2023-10-16T16:27:57.396Z,98525.16
2023-10-16T16:30:24.289Z,98527.38
2023-10-16T16:32:51.667Z,98526.94
2023-10-16T16:35:19.827Z,98524.09
2023-10-16T16:37:50.171Z,98526.47
2023-10-16T16:40:20.276Z,98530.28
2023-10-16T16:42:49.366Z,98523.25
2023-10-16T16:45:22.235Z,98524.78
2023-10-16T16:47:49.096Z,98531.63
2023-10-16T16:50:18.952Z,98534.31
2023-10-16T16:52:46.363Z,98537.41
2023-10-16T16:57:45.739Z,98538.97
2023-10-16T17:00:19.976Z,98535.50
2023-10-16T17:02:48.764Z,98525.81
2023-10-16T17:05:16.149Z,98525.31
2023-10-16T17:07:43.584Z,98522.63
2023-10-16T17:10:13.413Z,98525.69
2023-10-16T17:12:42.176Z,98522.44
2023-10-16T17:15:13.766Z,98517.00
2023-10-16T17:17:42.215Z,98518.94
2023-10-16T17:20:11.100Z,98512.69
2023-10-16T17:22:55.993Z,98531.47
2023-10-16T17:25:25.165Z,98534.91
2023-10-16T17:27:53.024Z,98536.31
2023-10-16T17:32:55.102Z,98540.31
2023-10-16T17:35:29.553Z,98547.56
2023-10-16T17:37:56.657Z,98554.53
2023-10-16T17:40:23.432Z,98548.13
2023-10-16T17:42:50.120Z,98547.19
2023-10-16T17:47:48.730Z,98553.97
2023-10-16T17:50:15.594Z,98553.28
2023-10-16T17:52:43.705Z,98551.75
2023-10-16T17:55:10.522Z,98554.81
2023-10-16T17:57:37.778Z,98551.75
2023-10-16T18:00:10.878Z,98554.88
2023-10-16T18:02:38.518Z,98547.78
2023-10-16T18:05:06.583Z,98559.16
2023-10-16T18:07:33.382Z,98557.03
2023-10-16T18:10:00.145Z,98570.56
2023-10-16T18:12:26.817Z,98563.66
2023-10-16T18:17:27.338Z,98562.38
2023-10-16T18:19:54.146Z,98570.97
2023-10-16T18:22:20.928Z,98569.63
2023-10-16T18:24:47.891Z,98565.66
2023-10-16T18:27:15.566Z,98570.44
2023-10-16T18:29:46.561Z,98563.34
2023-10-16T18:32:14.464Z,98578.56
2023-10-16T18:34:42.779Z,98569.50
2023-10-16T18:37:12.576Z,98564.22
2023-10-16T18:39:39.627Z,98570.03
2023-10-16T18:42:10.514Z,98575.94
2023-10-16T18:44:38.091Z,98572.63
2023-10-16T18:47:06.370Z,98578.44
2023-10-16T18:49:33.309Z,98583.03
2023-10-16T18:52:00.127Z,98578.44
2023-10-16T18:54:27.289Z,98589.34
2023-10-16T18:56:54.344Z,98589.78
2023-10-16T18:59:22.855Z,98584.88
2023-10-16T19:01:49.931Z,98578.97
2023-10-16T19:06:49.535Z,98582.59
2023-10-16T19:09:19.124Z,98581.81
2023-10-16T19:11:46.429Z,98579.53
2023-10-16T19:14:13.969Z,98590.84
2023-10-16T19:16:42.000Z,98593.56
2023-10-16T19:19:10.122Z,98592.88
2023-10-16T19:21:39.308Z,98592.59
2023-10-16T19:26:47.027Z,98600.38
2023-10-16T19:29:14.406Z,98595.72
2023-10-16T19:31:43.075Z,98597.06
2023-10-16T19:34:10.169Z,98594.69
2023-10-16T19:36:37.613Z,98590.94
2023-10-16T19:39:06.969Z,98593.75
2023-10-16T19:41:35.092Z,98588.03
2023-10-16T19:44:02.200Z,98587.06
2023-10-16T19:46:32.430Z,98584.97
2023-10-16T19:48:59.422Z,98585.66
2023-10-16T19:51:26.285Z,98585.66
2023-10-16T19:53:56.860Z,98595.44
2023-10-16T19:56:24.569Z,98596.81
2023-10-16T19:58:54.226Z,98602.91
2023-10-16T20:01:24.467Z,98602.13
2023-10-16T20:03:51.567Z,98621.00
2023-10-16T20:06:20.242Z,98615.09
2023-10-16T20:08:47.730Z,98620.66
2023-10-16T20:11:14.955Z,98620.91
2023-10-16T20:13:43.178Z,98618.72
2023-10-16T20:16:13.422Z,98620.13
2023-10-16T20:21:13.822Z,98619.31
2023-10-16T20:23:40.860Z,98624.59
2023-10-16T20:26:18.456Z,98614.66
2023-10-16T20:28:46.089Z,98610.94
2023-10-16T20:31:14.705Z,98609.72
2023-10-16T20:33:44.225Z,98615.41
2023-10-16T20:36:11.384Z,98613.66
2023-10-16T20:38:39.006Z,98627.13
2023-10-16T20:41:06.849Z,98617.63
2023-10-16T20:43:33.804Z,98612.38
2023-10-16T20:46:04.378Z,98618.34
2023-10-16T20:48:33.070Z,98617.66
2023-10-16T20:53:32.912Z,98621.31
2023-10-16T20:55:59.806Z,98617.56
2023-10-16T20:58:26.695Z,98606.53
2023-10-16T21:03:27.659Z,98615.84
2023-10-16T21:05:54.500Z,98607.25
2023-10-16T21:08:21.434Z,98613.16
2023-10-16T21:10:48.246Z,98610.50
2023-10-16T21:15:46.442Z,98618.22
2023-10-16T21:18:13.327Z,98617.97
2023-10-16T21:20:40.157Z,98614.59
2023-10-16T21:23:06.896Z,98616.75
2023-10-16T21:25:34.412Z,98617.31
2023-10-16T21:28:02.030Z,98620.31
2023-10-16T21:30:30.536Z,98612.03
2023-10-16T21:32:57.882Z,98597.13
2023-10-16T21:35:26.448Z,98591.91
2023-10-16T21:37:53.594Z,98591.25
2023-10-16T21:40:23.214Z,98593.78
2023-10-16T21:42:51.406Z,98596.59
2023-10-16T21:45:18.493Z,98595.91
2023-10-16T21:47:46.221Z,98588.34
2023-10-16T21:50:13.429Z,98597.16
2023-10-16T21:52:40.306Z,98577.25
2023-10-16T21:55:08.011Z,98574.75
2023-10-16T21:57:35.732Z,98578.72
2023-10-16T22:00:12.875Z,98570.47
2023-10-16T22:02:40.301Z,98568.53
2023-10-16T22:05:07.329Z,98565.00
2023-10-16T22:10:14.843Z,98553.16
2023-10-16T22:12:41.660Z,98560.22
2023-10-16T22:15:12.183Z,98561.16
2023-10-16T22:20:13.003Z,98564.75
2023-10-16T22:22:39.794Z,98558.09
2023-10-16T22:25:06.810Z,98556.41
2023-10-16T22:27:33.944Z,98551.19
2023-10-16T22:30:01.545Z,98544.97
2023-10-16T22:32:28.385Z,98543.16
2023-10-16T22:34:55.133Z,98543.69
2023-10-16T22:37:21.799Z,98544.84
2023-10-16T22:39:49.085Z,98545.06
2023-10-16T22:42:17.123Z,98543.47
2023-10-16T22:44:44.074Z,98545.63
2023-10-16T22:47:11.291Z,98548.91
2023-10-16T22:49:38.127Z,98543.91
2023-10-16T22:52:05.281Z,98552.25
2023-10-16T22:54:33.012Z,98556.28
2023-10-16T22:56:59.941Z,98552.59
2023-10-16T22:59:26.678Z,98557.25
2023-10-16T23:01:53.398Z,98550.63
2023-10-16T23:04:20.998Z,98556.53
2023-10-16T23:06:51.618Z,98559.78
2023-10-16T23:09:30.517Z,98567.38
2023-10-16T23:12:09.084Z,98572.94
2023-10-16T23:14:38.616Z,98574.00
2023-10-16T23:19:52.236Z,98568.69
2023-10-16T23:22:18.937Z,98561.88
2023-10-16T23:27:23.837Z,98552.53
2023-10-16T23:29:51.018Z,98559.53
2023-10-16T23:32:19.197Z,98555.56
2023-10-16T23:34:55.629Z,98555.53
2023-10-16T23:37:22.992Z,98557.47
2023-10-16T23:39:49.720Z,98552.25
2023-10-16T23:42:16.616Z,98555.81
2023-10-16T23:44:44.972Z,98548.19
2023-10-16T23:47:14.381Z,98558.31
2023-10-16T23:49:47.133Z,98551.84
2023-10-16T23:52:24.096Z,98555.72
2023-10-16T23:57:49.905Z,98558.66
